Flood From: 19-02-2018 06:00 Until: 20-02-2018 06:00 warning for: Flood Level: Yellow info button

Although rather usual in this region, locally or potentially dangerous phenomena are expected. (such as local winds, summer thunderstorms, rising streams or high waves) Be aware and pay attention to the latest weather updates, especially if you carry out activities exposed to weather or close to a stream or shoreline. 


Meteo18 Weather Cam more information Meteo18 Weather Cam


Thunder radar more information blitzortung!


Rain radar more information rain snow radar


Visit our other weather sites:

Template documentation
and downloads

And another site



Weather Underground History page Text

Daily Summary for August 30, 2017 Units:  Metric    English   Both
« Previous Day
Next Day »
Daily Weekly Monthly Yearly Custom
  High: Low: Average:
Temperature: -17.8 °C -8.9 °C -6.1 °C
Dew Point: -17.8 °C -9.8 °C -8 °C
Humidity: Humidity % 64 % 80 %
Wind Speed: 0 km/h 0 km/h 10.8 km/h
Wind Gust: 0 km/h - -
Wind:- - WSW
Pressure: 0 hPa 34222.3 hPa -
Precipitation: 38.1 mm    
Historical Graphs
 
 
Tabular Data for August 30, 2017
Time Temperature Dew Point Pressure Wind Wind Speed Wind Gust Humidity Rainfall Rate (Hourly)
-17.8 °C -17.8 °C 0 hPa Calm     Humidity % 0 mm
00:02 -3.3 °C -7.3 °C 34269.7 hPa West 12.9 km/h 31.1 km/h 64 % 0 mm
00:12 -3.4 °C -7.3 °C 34269.7 hPa West 15.6 km/h 31.1 km/h 65 % 0 mm
00:17 -3.4 °C -7.3 °C 34269.7 hPa WSW 18.2 km/h 28.5 km/h 65 % 0 mm
00:22 -3.5 °C -7.4 °C 34256.2 hPa WSW 12.9 km/h 28.5 km/h 65 % 0 mm
00:32 -3.6 °C -7.5 °C 34256.2 hPa West 20.8 km/h 36.2 km/h 65 % 0 mm
00:42 -3.8 °C -7.3 °C 34256.2 hPa WSW 12.9 km/h 31.1 km/h 68 % 0 mm
00:52 -4.1 °C -7.3 °C 34256.2 hPa West 20.8 km/h 31.1 km/h 70 % 0 mm
00:57 -4.1 °C -7.3 °C 34256.2 hPa West 18.2 km/h 31.1 km/h 70 % 0 mm
01:02 -4.2 °C -7.3 °C 34256.2 hPa WSW 18.2 km/h 31.1 km/h 71 % 0 mm
01:12 -4.3 °C -7.4 °C 34256.2 hPa West 15.6 km/h 31.1 km/h 71 % 0 mm
01:22 -4.4 °C -7.4 °C 34256.2 hPa WSW 15.6 km/h 28.5 km/h 72 % 0 mm
01:27 -4.5 °C -7.3 °C 34256.2 hPa West 10.3 km/h 28.5 km/h 73 % 0 mm
01:32 -4.6 °C -7.3 °C 34256.2 hPa West 12.9 km/h 28.5 km/h 74 % 0 mm
01:37 -4.6 °C -7.3 °C 34256.2 hPa West 5.1 km/h 28.5 km/h 74 % 0 mm
01:42 -4.7 °C -7.4 °C 34256.2 hPa WSW 7.7 km/h 23.3 km/h 74 % 0 mm
01:47 -4.8 °C -7.5 °C 34256.2 hPa WNW 5.1 km/h 23.3 km/h 74 % 0 mm
01:52 -4.8 °C -7.4 °C 34256.2 hPa SW 2.6 km/h 23.3 km/h 75 % 0 mm
01:57 -4.9 °C -7.4 °C 34256.2 hPa Calm   20.8 km/h 76 % 0 mm
02:02 -5.1 °C -7.3 °C 34256.2 hPa Calm   20.8 km/h 78 % 0 mm
02:12 -5.4 °C -7.4 °C 34256.2 hPa Calm   12.9 km/h 80 % 0 mm
02:17 -5.6 °C -7.4 °C 34256.2 hPa SSW 2.6 km/h 5.1 km/h 81 % 0 mm
02:22 -5.7 °C -7.4 °C 34256.2 hPa Calm   5.1 km/h 82 % 0 mm
02:32 -5.8 °C -7.6 °C 34256.2 hPa Calm   7.7 km/h 82 % 0 mm
02:37 -5.8 °C -7.6 °C 34256.2 hPa Calm   7.7 km/h 82 % 0 mm
02:42 -5.8 °C -7.7 °C 34256.2 hPa Calm   2.6 km/h 81 % 0 mm
02:52 -6 °C -7.7 °C 34246 hPa Calm   2.6 km/h 83 % 0 mm
03:02 -6.1 °C -7.8 °C 34246 hPa SW 5.1 km/h 7.7 km/h 82 % 0 mm
03:12 -6 °C -7.8 °C 34246 hPa SW 5.1 km/h 7.7 km/h 82 % 0 mm
03:17 -6 °C -7.8 °C 34256.2 hPa SSW 10.3 km/h 10.3 km/h 82 % 0 mm
03:22 -6.1 °C -7.8 °C 34256.2 hPa SSW 10.3 km/h 10.3 km/h 83 % 0 mm
03:27 -6.2 °C -7.8 °C 34256.2 hPa South 5.1 km/h 12.9 km/h 83 % 0 mm
03:32 -6.2 °C -7.8 °C 34256.2 hPa SSW 2.6 km/h 12.9 km/h 84 % 0 mm
03:37 -6.3 °C -7.7 °C 34256.2 hPa SSW 5.1 km/h 12.9 km/h 85 % 0 mm
03:42 -6.3 °C -7.8 °C 34256.2 hPa SSW 2.6 km/h 12.9 km/h 85 % 0 mm
03:52 -6.4 °C -7.8 °C 34256.2 hPa SSW 5.1 km/h 7.7 km/h 86 % 0 mm
03:57 -6.5 °C -7.8 °C 34256.2 hPa SSW 2.6 km/h 7.7 km/h 86 % 0 mm
04:02 -6.6 °C -7.9 °C 34256.2 hPa SW 5.1 km/h 7.7 km/h 86 % 0 mm
04:07 -6.7 °C -8.1 °C 34256.2 hPa SSW 2.6 km/h 7.7 km/h 86 % 0 mm
04:12 -6.8 °C -8 °C 34256.2 hPa SSW 2.6 km/h 7.7 km/h 87 % 0 mm
04:17 -6.8 °C -8.1 °C 34256.2 hPa Calm   7.7 km/h 87 % 0 mm
04:22 -6.9 °C -8.1 °C 34256.2 hPa SSW 2.6 km/h 10.3 km/h 87 % 0 mm
04:32 -6.9 °C -8.1 °C 34256.2 hPa Calm   10.3 km/h 88 % 0 mm
04:37 -7 °C -8.1 °C 34256.2 hPa SSW 2.6 km/h 7.7 km/h 88 % 0 mm
04:42 -7 °C -8.1 °C 34256.2 hPa SW 5.1 km/h 7.7 km/h 89 % 0 mm
04:47 -6.9 °C -8.1 °C 34256.2 hPa Calm   5.1 km/h 88 % 0 mm
04:52 -6.9 °C -8 °C 34256.2 hPa SSW 5.1 km/h 7.7 km/h 88 % 0 mm
05:02 -6.8 °C -7.9 °C 34269.7 hPa SW 5.1 km/h 10.3 km/h 88 % 0 mm
05:12 -6.7 °C -7.9 °C 34269.7 hPa SW 5.1 km/h 10.3 km/h 87 % 0 mm
05:17 -6.7 °C -7.9 °C 34269.7 hPa SSE 2.6 km/h 10.3 km/h 87 % 0 mm
05:22 -6.7 °C -7.9 °C 34269.7 hPa Calm   7.7 km/h 87 % 0 mm
05:32 -6.8 °C -8 °C 34256.2 hPa Calm   7.7 km/h 87 % 0 mm
05:42 -6.8 °C -8 °C 34269.7 hPa Calm   7.7 km/h 87 % 0 mm
05:47 -6.8 °C -8 °C 34269.7 hPa Calm   7.7 km/h 87 % 0 mm
05:52 -6.8 °C -8 °C 34269.7 hPa SW 2.6 km/h 5.1 km/h 87 % 0 mm
05:57 -6.7 °C -8.1 °C 34269.7 hPa WSW 7.7 km/h 7.7 km/h 86 % 0 mm
06:02 -6.7 °C -8 °C 34269.7 hPa Calm   12.9 km/h 86 % 0 mm
06:12 -6.6 °C -8.1 °C 34269.7 hPa SW 5.1 km/h 12.9 km/h 85 % 0 mm
06:17 -6.6 °C -8.1 °C 34269.7 hPa SW 5.1 km/h 12.9 km/h 85 % 0 mm
06:32 -6.7 °C -8.2 °C 34269.7 hPa Calm   18.2 km/h 85 % 0 mm
06:37 -6.7 °C -8.2 °C 34269.7 hPa WSW 2.6 km/h 12.9 km/h 85 % 0 mm
06:42 -6.7 °C -8.2 °C 34269.7 hPa Calm   12.9 km/h 85 % 0 mm
06:47 -6.7 °C -8.2 °C 34269.7 hPa Calm   12.9 km/h 85 % 0 mm
06:52 -6.7 °C -8.2 °C 34269.7 hPa SW 12.9 km/h 12.9 km/h 85 % 0 mm
07:02 -6.8 °C -8.1 °C 34269.7 hPa Calm   10.3 km/h 86 % 0 mm
07:07 -6.8 °C -8.1 °C 34269.7 hPa Calm   10.3 km/h 86 % 0 mm
07:17 -6.8 °C -8.2 °C 34269.7 hPa Calm   12.9 km/h 86 % 0 mm
07:22 -6.8 °C -8.2 °C 34269.7 hPa SW 2.6 km/h 7.7 km/h 86 % 0 mm
07:32 -6.8 °C -8.2 °C 34269.7 hPa SW 5.1 km/h 10.3 km/h 86 % 0 mm
07:42 -6.8 °C -8.2 °C 34279.9 hPa SW 2.6 km/h 10.3 km/h 86 % 0 mm
08:02 -6.9 °C -8.2 °C 34293.4 hPa SW 15.6 km/h 15.6 km/h 86 % 0 mm
08:12 -6.8 °C -8.2 °C 34293.4 hPa SSW 10.3 km/h 20.8 km/h 86 % 0 mm
08:17 -6.8 °C -8.2 °C 34293.4 hPa SSW 7.7 km/h 20.8 km/h 86 % 0 mm
08:22 -6.8 °C -8.1 °C 34293.4 hPa SW 10.3 km/h 15.6 km/h 86 % 0 mm
08:32 -6.7 °C -8.2 °C 34293.4 hPa SW 15.6 km/h 18.2 km/h 85 % 0 mm
08:42 -6.7 °C -8.1 °C 34293.4 hPa WSW 2.6 km/h 20.8 km/h 85 % 0 mm
08:52 -6.6 °C -8.2 °C 34293.4 hPa South 15.6 km/h 20.8 km/h 84 % 0 mm
09:02 -6.6 °C -8.2 °C 34293.4 hPa WSW 5.1 km/h 20.8 km/h 84 % 0 mm
09:12 -6.5 °C -8.1 °C 34293.4 hPa West 7.7 km/h 20.8 km/h 84 % 0 mm
09:17 -6.4 °C -8.1 °C 34293.4 hPa SW 10.3 km/h 20.8 km/h 83 % 0 mm
09:22 -6.3 °C -8.1 °C 34293.4 hPa SSE 7.7 km/h 23.3 km/h 82 % 0 mm
09:27 -6.3 °C -8.1 °C 34293.4 hPa West 12.9 km/h 23.3 km/h 82 % 0 mm
09:32 -6.2 °C -7.9 °C 34293.4 hPa SW 23.3 km/h 25.9 km/h 82 % 0 mm
09:42 -6.1 °C -8.1 °C 34293.4 hPa WSW 10.3 km/h 36.2 km/h 80 % 0 mm
09:47 -6.1 °C -8.1 °C 34303.6 hPa West 5.1 km/h 36.2 km/h 80 % 0 mm
09:57 -6.1 °C -8.2 °C 34303.6 hPa WSW 20.8 km/h 31.1 km/h 79 % 0 mm
10:02 -6.1 °C -8.1 °C 34303.6 hPa SW 12.9 km/h 38.8 km/h 80 % 0 mm
10:12 -6 °C -8.1 °C 34303.6 hPa West 12.9 km/h 38.8 km/h 79 % 0 mm
10:17 -6 °C -8.1 °C 34303.6 hPa West 20.8 km/h 38.8 km/h 79 % 0 mm
10:22 -5.9 °C -8 °C 34303.6 hPa SW 2.6 km/h 28.5 km/h 79 % 0 mm
10:32 -5.8 °C -8 °C 34303.6 hPa WSW 23.3 km/h 31.1 km/h 78 % 0 mm
10:42 -5.8 °C -8.1 °C 34293.4 hPa SW 7.7 km/h 33.6 km/h 78 % 0 mm
10:47 -5.8 °C -8.1 °C 34303.6 hPa WSW 10.3 km/h 33.6 km/h 78 % 0 mm
10:52 -5.8 °C -8 °C 34303.6 hPa WSW 10.3 km/h 23.3 km/h 78 % 0 mm
10:57 -5.7 °C -7.8 °C 34303.6 hPa West 12.9 km/h 23.3 km/h 79 % 0 mm
11:02 -5.6 °C -7.9 °C 34303.6 hPa WSW 20.8 km/h 23.3 km/h 77 % 0 mm
11:12 -5.7 °C -7.9 °C 34313.7 hPa SW 15.6 km/h 25.9 km/h 78 % 0 mm
11:17 -5.7 °C -7.9 °C 34327.3 hPa WSW 10.3 km/h 25.9 km/h 78 % 0 mm
11:22 -5.7 °C -7.9 °C 34327.3 hPa WSW 7.7 km/h 28.5 km/h 78 % 0 mm
11:32 -5.8 °C -7.9 °C 34313.7 hPa SW 20.8 km/h 28.5 km/h 79 % 0 mm
11:37 -5.9 °C -8 °C 34313.7 hPa SW 20.8 km/h 28.5 km/h 79 % 0 mm
11:42 -5.8 °C -7.9 °C 34313.7 hPa WSW 20.8 km/h 25.9 km/h 79 % 0 mm
11:47 -5.8 °C -7.9 °C 34313.7 hPa SW 20.8 km/h 25.9 km/h 79 % 0 mm
11:57 -5.7 °C -7.8 °C 34313.7 hPa SW 10.3 km/h 33.6 km/h 79 % 0 mm
12:02 -5.6 °C -7.8 °C 34313.7 hPa SW 12.9 km/h 33.6 km/h 78 % 0 mm
12:12 -5.6 °C -7.9 °C 34303.6 hPa SW 18.2 km/h 25.9 km/h 77 % 0 mm
12:17 -5.6 °C -8.1 °C 34303.6 hPa WSW 12.9 km/h 25.9 km/h 76 % 0 mm
12:22 -5.6 °C -7.9 °C 34303.6 hPa SW 25.9 km/h 25.9 km/h 77 % 0 mm
12:32 -5.5 °C -7.8 °C 34303.6 hPa WSW 5.1 km/h 25.9 km/h 77 % 0 mm
12:37 -5.4 °C -7.8 °C 34293.4 hPa SW 10.3 km/h 25.9 km/h 77 % 0 mm
12:42 -5.4 °C -7.9 °C 34293.4 hPa West 7.7 km/h 28.5 km/h 76 % 0 mm
12:47 -5.5 °C -7.9 °C 34303.6 hPa WSW 10.3 km/h 28.5 km/h 76 % 0 mm
12:52 -5.5 °C -7.9 °C 34293.4 hPa SW 5.1 km/h 25.9 km/h 76 % 0 mm
13:02 -5.5 °C -7.9 °C 34293.4 hPa South 15.6 km/h 25.9 km/h 76 % 0 mm
13:12 -5.4 °C -8 °C 34303.6 hPa SSW 10.3 km/h 28.5 km/h 75 % 0 mm
13:17 -5.4 °C -7.9 °C 34293.4 hPa SW 5.1 km/h 28.5 km/h 76 % 0 mm
13:22 -5.4 °C -7.9 °C 34293.4 hPa WSW 5.1 km/h 28.5 km/h 76 % 0 mm
13:32 -5.3 °C -7.8 °C 34293.4 hPa WSW 10.3 km/h 23.3 km/h 76 % 0 mm
13:42 -5.2 °C -7.8 °C 34293.4 hPa SW 20.8 km/h 20.8 km/h 75 % 0 mm
13:47 -5.2 °C -7.9 °C 34303.6 hPa SSW 10.3 km/h 20.8 km/h 74 % 0 mm
13:52 -5.2 °C -7.9 °C 34293.4 hPa WSW 18.2 km/h 31.1 km/h 74 % 0 mm
14:02 -5.2 °C -8.1 °C 34293.4 hPa SW 10.3 km/h 31.1 km/h 73 % 0 mm
14:12 -5.3 °C -8.1 °C 34303.6 hPa WSW 10.3 km/h 38.8 km/h 73 % 0 mm
14:17 -5.3 °C -8.1 °C 34303.6 hPa West 7.7 km/h 38.8 km/h 74 % 0 mm
14:27 -5.2 °C -7.9 °C 34303.6 hPa SW 20.8 km/h 38.8 km/h 74 % 0 mm
14:32 -5.2 °C -7.9 °C 34303.6 hPa SW 25.9 km/h 38.8 km/h 74 % 0 mm
14:42 -5.2 °C -8 °C 34303.6 hPa SSW 10.3 km/h 33.6 km/h 73 % 0 mm
14:52 -5.1 °C -8.1 °C 34303.6 hPa SSW 18.2 km/h 36.2 km/h 72 % 0 mm
15:02 -5.1 °C -7.9 °C 34313.7 hPa South 18.2 km/h 33.6 km/h 73 % 0 mm
15:07 -5.2 °C -8 °C 34303.6 hPa WSW 23.3 km/h 33.6 km/h 73 % 0 mm
15:12 -5.3 °C -7.8 °C 34303.6 hPa South 25.9 km/h 38.8 km/h 76 % 0 mm
15:22 -5.4 °C -7.6 °C 34293.4 hPa WSW 18.2 km/h 38.8 km/h 79 % 0 mm
15:32 -5.4 °C -7.6 °C 34293.4 hPa WSW 20.8 km/h 33.6 km/h 78 % 0 mm
15:42 -5.4 °C -7.7 °C 34279.9 hPa SW 23.3 km/h 33.6 km/h 77 % 0 mm
15:52 -5.2 °C -7.6 °C 34269.7 hPa SSW 10.3 km/h 33.6 km/h 77 % 0 mm
16:02 -5.1 °C -7.7 °C 34279.9 hPa SSW 18.2 km/h 25.9 km/h 75 % 0 mm
16:12 -4.9 °C -7.8 °C 34279.9 hPa SSW 20.8 km/h 36.2 km/h 73 % 0 mm
16:17 -4.9 °C -7.8 °C 34279.9 hPa SW 12.9 km/h 38.8 km/h 73 % 0 mm
16:22 -4.9 °C -7.8 °C 34269.7 hPa SSW 20.8 km/h 38.8 km/h 72 % 0 mm
16:27 -4.8 °C -7.9 °C 34256.2 hPa SW 23.3 km/h 46.7 km/h 71 % 0 mm
16:32 -4.8 °C -7.6 °C 34256.2 hPa SW 12.9 km/h 46.7 km/h 73 % 0 mm
16:37 -4.8 °C -7.6 °C 34256.2 hPa WSW 36.2 km/h 46.7 km/h 73 % 0 mm
16:42 -4.8 °C -7.7 °C 34256.2 hPa WSW 18.2 km/h 46.7 km/h 72 % 0 mm
16:52 -4.7 °C -7.6 °C 34256.2 hPa SSW 23.3 km/h 36.2 km/h 72 % 0 mm
16:57 -4.7 °C -7.6 °C 34256.2 hPa SW 18.2 km/h 41.4 km/h 72 % 0 mm
17:02 -4.7 °C -7.8 °C 34256.2 hPa WSW 28.5 km/h 41.4 km/h 71 % 0 mm
17:12 -4.6 °C -7.8 °C 34246 hPa WSW 18.2 km/h 38.8 km/h 70 % 0 mm
17:22 -4.6 °C -7.9 °C 34246 hPa SW 18.2 km/h 38.8 km/h 69 % 0 mm
17:32 -4.6 °C -7.8 °C 34235.8 hPa WSW 25.9 km/h 36.2 km/h 70 % 0 mm
17:42 -4.6 °C -7.9 °C 34235.8 hPa SW 28.5 km/h 36.2 km/h 69 % 0 mm
17:47 -4.6 °C -7.8 °C 34235.8 hPa SW 28.5 km/h 33.6 km/h 70 % 0 mm
17:52 -4.5 °C -7.7 °C 34235.8 hPa SW 23.3 km/h 33.6 km/h 70 % 0 mm
18:02 -4.5 °C -7.7 °C 34235.8 hPa WSW 18.2 km/h 38.8 km/h 70 % 0 mm
18:12 -4.5 °C -7.7 °C 34222.3 hPa SSW 10.3 km/h 38.8 km/h 70 % 0 mm
18:17 -4.5 °C -7.7 °C 34222.3 hPa SW 12.9 km/h 41.4 km/h 70 % 0 mm
18:22 -4.6 °C -7.7 °C 34222.3 hPa South 12.9 km/h 41.4 km/h 71 % 0 mm
18:32 -4.6 °C -7.7 °C 34235.8 hPa SSW 10.3 km/h 38.8 km/h 71 % 0 mm
18:42 -4.7 °C -7.6 °C 34235.8 hPa SW 18.2 km/h 33.6 km/h 72 % 0 mm
18:52 -4.6 °C -7.8 °C 34222.3 hPa SSW 23.3 km/h 33.6 km/h 70 % 0 mm
18:57 -4.6 °C -7.8 °C 34222.3 hPa SW 31.1 km/h 31.1 km/h 70 % 0 mm
19:02 -4.6 °C -7.7 °C 34246 hPa West 31.1 km/h 36.2 km/h 71 % 0 mm
19:12 -6.6 °C -7.8 °C 34246 hPa WNW 23.3 km/h 51.8 km/h 87 % 0 mm
19:17 -6.8 °C -7.9 °C 34246 hPa WSW 23.3 km/h 57 km/h 89 % 33.02 mm
19:22 -6.8 °C -7.8 °C 34246 hPa WNW 7.7 km/h 57 km/h 90 % 38.1 mm
19:27 -6.8 °C -7.8 °C 34246 hPa WSW 10.3 km/h 38.8 km/h 90 % 38.1 mm
19:32 -6.8 °C -7.7 °C 34246 hPa West 15.6 km/h 31.1 km/h 90 % 38.1 mm
19:42 -6.7 °C -7.6 °C 34246 hPa WSW 18.2 km/h 28.5 km/h 90 % 38.1 mm
19:52 -6.7 °C -7.7 °C 34256.2 hPa West 10.3 km/h 28.5 km/h 90 % 38.1 mm
19:57 -6.7 °C -7.7 °C 34256.2 hPa SW 5.1 km/h 28.5 km/h 90 % 38.1 mm
20:02 -6.8 °C -7.7 °C 34256.2 hPa WSW 7.7 km/h 25.9 km/h 90 % 38.1 mm
20:12 -6.8 °C -7.8 °C 34256.2 hPa WSW 15.6 km/h 25.9 km/h 90 % 38.1 mm
20:17 -6.8 °C -7.8 °C 34269.7 hPa West 5.1 km/h 18.2 km/h 90 % 7.62 mm
20:22 -6.8 °C -7.8 °C 34269.7 hPa WSW 2.6 km/h 20.8 km/h 90 % 0 mm
20:32 -6.9 °C -7.8 °C 34279.9 hPa SW 7.7 km/h 20.8 km/h 90 % 0 mm
20:42 -6.9 °C -7.7 °C 34293.4 hPa WSW 5.1 km/h 18.2 km/h 91 % 0 mm
20:47 -6.9 °C -7.8 °C 34293.4 hPa WSW 7.7 km/h 18.2 km/h 91 % 0 mm
20:52 -6.9 °C -7.8 °C 34293.4 hPa SW 10.3 km/h 18.2 km/h 91 % 0 mm
20:57 -6.9 °C -7.9 °C 34293.4 hPa WSW 5.1 km/h 20.8 km/h 90 % 0 mm
21:02 -7 °C -7.9 °C 34293.4 hPa SW 15.6 km/h 20.8 km/h 90 % 0 mm
21:12 -7 °C -7.8 °C 34303.6 hPa SW 15.6 km/h 20.8 km/h 91 % 0 mm
21:17 -7.1 °C -7.9 °C 34293.4 hPa WSW 7.7 km/h 23.3 km/h 91 % 0 mm
21:22 -7.1 °C -7.9 °C 34303.6 hPa West 7.7 km/h 20.8 km/h 91 % 0 mm
21:32 -7.1 °C -7.9 °C 34303.6 hPa West 2.6 km/h 20.8 km/h 91 % 0 mm
21:42 -7.2 °C -8.1 °C 34303.6 hPa West 2.6 km/h 18.2 km/h 91 % 0 mm
21:47 -7.3 °C -8.1 °C 34303.6 hPa WSW 5.1 km/h 15.6 km/h 91 % 0 mm
21:57 -7.3 °C -8.2 °C 34313.7 hPa WNW 10.3 km/h 15.6 km/h 91 % 0 mm
22:02 -7.3 °C -8.2 °C 34313.7 hPa West 7.7 km/h 15.6 km/h 91 % 0 mm
22:12 -7.4 °C -8.3 °C 34327.3 hPa WSW 5.1 km/h 15.6 km/h 90 % 0 mm
22:17 -7.4 °C -8.4 °C 34327.3 hPa WNW 12.9 km/h 18.2 km/h 89 % 0 mm
22:22 -7.5 °C -8.5 °C 34327.3 hPa WNW 15.6 km/h 25.9 km/h 89 % 0 mm
22:27 -7.6 °C -8.6 °C 34327.3 hPa NW 2.6 km/h 25.9 km/h 89 % 0 mm
22:32 -7.6 °C -8.6 °C 34327.3 hPa West 5.1 km/h 25.9 km/h 89 % 0 mm
22:42 -7.7 °C -8.8 °C 34337.4 hPa WNW 7.7 km/h 23.3 km/h 88 % 0 mm
22:52 -7.8 °C -8.9 °C 34337.4 hPa West 5.1 km/h 25.9 km/h 88 % 0 mm
22:57 -7.8 °C -8.9 °C 34337.4 hPa West 7.7 km/h 25.9 km/h 88 % 0 mm
23:02 -7.9 °C -8.9 °C 34337.4 hPa WNW 10.3 km/h 23.3 km/h 89 % 0 mm
23:12 -8 °C -9 °C 34337.4 hPa NW 12.9 km/h 23.3 km/h 89 % 0 mm
23:17 -8.1 °C -9.1 °C 34337.4 hPa Calm   20.8 km/h 89 % 0 mm
23:22 -8.1 °C -9.1 °C 34347.6 hPa NW 5.1 km/h 20.8 km/h 89 % 0 mm
23:27 -8.2 °C -9.3 °C 34347.6 hPa WNW 10.3 km/h 20.8 km/h 88 % 0 mm
23:32 -8.3 °C -9.3 °C 34347.6 hPa WNW 10.3 km/h 20.8 km/h 89 % 0 mm
23:42 -8.5 °C -9.5 °C 34347.6 hPa WNW 18.2 km/h 23.3 km/h 89 % 0 mm
23:47 -8.6 °C -9.5 °C 34347.6 hPa North 10.3 km/h 23.3 km/h 90 % 0 mm
23:52 -8.7 °C -9.6 °C 34347.6 hPa NW 5.1 km/h 23.3 km/h 90 % 0 mm
23:57 -8.9 °C -9.8 °C 34347.6 hPa NNW 2.6 km/h 23.3 km/h 90 % 0 mm
Meteo18
Compliments of Weather Underground - 4 mb

Script developed by  Jim McMurry - jmcmurry@mwt.net Adapted for the template by  Wim van der Kuil - Leuven-Template.eu

You find our weather info also at:

European Weather Network

Weather Underground

Equipment we use:

Weather-station
Davis Vue

Weather-program
Meteobridge

Weather-server
Raspberry PI 2 B+

Provider
1 and 1

Davis Vue

Meteobridge

Raspberry PI 2 B+

1 and 1